Time;durP1;ratioP1;P1;durP2;ratioP2;P2;SDS_P1;SDS_P2;PMS_P1;PMS_P2;Temp;Humidity;BMP_temperature;BMP_pressure;BME280_temperature;BME280_humidity;BME280_pressure;Samples;Min_cycle;Max_cycle;Signal;HPM_P1;HPM_P2
2022/08/11 00:01:23;;;;;;;;;;;16.30;99.90;;;;;;4992639;28;25115;-77
2022/08/11 00:03:50;;;;;;;;;;;16.30;99.90;;;;;;5010139;28;25075;-77
2022/08/11 00:06:23;;;;;;;;;;;16.20;99.90;;;;;;5010614;28;25150;-77
2022/08/11 00:08:51;;;;;;;;;;;16.20;99.90;;;;;;4990303;28;25080;-77
2022/08/11 00:11:18;;;;;;;;;;;16.20;99.90;;;;;;4981885;28;25074;-77
2022/08/11 00:18:14;;;;;;;;;;;16.10;99.90;;;;;;3760111;27;264792;-77
2022/08/11 00:23:30;;;;;;;;;;;16.10;99.90;;;;;;3915682;27;227853;-75
2022/08/11 00:25:57;;;;;;;;;;;16.00;99.90;;;;;;3435205;27;219743;-78
2022/08/11 00:28:28;;;;;;;;;;;16.00;99.90;;;;;;4814590;27;135607;-78
2022/08/11 00:33:42;;;;;;;;;;;16.00;99.90;;;;;;4887968;27;79509;-78
2022/08/11 00:36:09;;;;;;;;;;;16.00;99.90;;;;;;5129311;27;25260;-78
2022/08/11 00:38:37;;;;;;;;;;;16.00;99.90;;;;;;5116433;27;25174;-78
2022/08/11 00:41:11;;;;;;;;;;;16.00;99.90;;;;;;5164231;27;25062;-78
2022/08/11 00:43:51;;;;;;;;;;;16.00;99.90;;;;;;4900320;27;243742;-78
2022/08/11 00:46:22;;;;;;;;;;;16.00;99.90;;;;;;5168254;27;25120;-78
2022/08/11 00:48:59;;;;;;;;;;;16.00;99.90;;;;;;5159677;27;25072;-81
2022/08/11 00:51:36;;;;;;;;;;;16.00;99.90;;;;;;5146028;27;21099;-79
2022/08/11 00:54:06;;;;;;;;;;;15.90;99.90;;;;;;5120694;27;36996;-78
2022/08/11 00:56:58;;;;;;;;;;;15.90;99.90;;;;;;4784497;27;151059;-77
2022/08/11 00:59:46;;;;;;;;;;;15.90;99.90;;;;;;2127939;27;465943;-78
2022/08/11 01:02:17;;;;;;;;;;;15.80;99.90;;;;;;4604420;27;197841;-78
2022/08/11 01:07:12;;;;;;;;;;;15.80;99.90;;;;;;3495138;27;278301;-78
2022/08/11 01:09:59;;;;;;;;;;;15.70;99.90;;;;;;5040390;27;39312;-78
2022/08/11 01:12:34;;;;;;;;;;;15.70;99.90;;;;;;5150284;27;25080;-78
2022/08/11 01:15:24;;;;;;;;;;;15.60;99.90;;;;;;5148292;27;25119;-78
2022/08/11 01:18:12;;;;;;;;;;;15.50;99.90;;;;;;5181351;27;25126;-78
2022/08/11 01:20:57;;;;;;;;;;;15.40;99.90;;;;;;5148106;27;25120;-78
2022/08/11 01:23:48;;;;;;;;;;;15.30;99.90;;;;;;5185636;27;25090;-78
2022/08/11 01:26:48;;;;;;;;;;;15.30;99.90;;;;;;5105345;27;31957;-77
2022/08/11 01:29:52;;;;;;;;;;;15.20;99.90;;;;;;5148754;27;25061;-77
2022/08/11 01:32:52;;;;;;;;;;;15.10;99.90;;;;;;4764439;27;61723;-78
2022/08/11 01:35:34;;;;;;;;;;;15.10;99.90;;;;;;5027165;27;28819;-77
2022/08/11 01:38:25;;;;;;;;;;;15.00;99.90;;;;;;5081491;27;25127;-77
2022/08/11 01:47:05;;;;;;;;;;;14.90;99.90;;;;;;5114850;27;25576;-77
2022/08/11 01:49:36;;;;;;;;;;;14.90;99.90;;;;;;5127970;27;25074;-78
2022/08/11 01:52:08;;;;;;;;;;;14.80;99.90;;;;;;5128081;27;25060;-77
2022/08/11 01:54:40;;;;;;;;;;;14.90;99.90;;;;;;5128347;27;20350;-77
2022/08/11 01:57:12;;;;;;;;;;;14.80;99.90;;;;;;5128045;27;25093;-78
2022/08/11 01:59:47;;;;;;;;;;;14.80;99.90;;;;;;5129356;27;25065;-78
2022/08/11 02:02:44;;;;;;;;;;;14.70;99.90;;;;;;5129093;27;25118;-78
2022/08/11 02:05:23;;;;;;;;;;;14.70;99.90;;;;;;5128904;27;25071;-77
2022/08/11 02:07:54;;;;;;;;;;;14.50;99.90;;;;;;5126952;27;25070;-77
2022/08/11 02:13:14;;;;;;;;;;;14.50;99.90;;;;;;5001712;27;31492;-77
2022/08/11 02:15:45;;;;;;;;;;;14.50;99.90;;;;;;5129139;27;25088;-77
2022/08/11 02:18:16;;;;;;;;;;;14.40;99.90;;;;;;5129180;27;25061;-78
2022/08/11 02:23:41;;;;;;;;;;;14.40;99.90;;;;;;5127481;27;25120;-77
2022/08/11 02:26:16;;;;;;;;;;;14.30;99.90;;;;;;5127408;27;25108;-78
2022/08/11 02:28:54;;;;;;;;;;;14.30;99.90;;;;;;5099550;27;42085;-77
2022/08/11 02:34:24;;;;;;;;;;;14.30;99.90;;;;;;5109625;27;25081;-80
2022/08/11 02:36:54;;;;;;;;;;;14.30;99.90;;;;;;5126274;27;25077;-77
2022/08/11 02:39:23;;;;;;;;;;;14.10;99.90;;;;;;5128104;27;25143;-78
2022/08/11 02:44:42;;;;;;;;;;;14.00;99.90;;;;;;5127047;27;25074;-78
2022/08/11 02:47:13;;;;;;;;;;;14.00;99.90;;;;;;5109890;27;25122;-78
2022/08/11 02:49:54;;;;;;;;;;;14.00;99.90;;;;;;5126343;27;25101;-78
2022/08/11 02:52:33;;;;;;;;;;;14.00;99.90;;;;;;5127236;27;26154;-78
2022/08/11 02:55:10;;;;;;;;;;;14.00;99.90;;;;;;5113585;27;25171;-78
2022/08/11 02:57:40;;;;;;;;;;;14.00;99.90;;;;;;5113124;28;25070;-78
2022/08/11 03:00:08;;;;;;;;;;;14.00;99.90;;;;;;5112906;28;25100;-77
2022/08/11 03:02:44;;;;;;;;;;;13.90;99.90;;;;;;5113078;28;25111;-77
2022/08/11 03:05:41;;;;;;;;;;;13.90;99.90;;;;;;5147873;27;25081;-78
2022/08/11 03:08:17;;;;;;;;;;;13.90;99.90;;;;;;5053216;28;25070;-78
2022/08/11 03:16:46;;;;;;;;;;;13.90;99.90;;;;;;5113695;28;25134;-77
2022/08/11 03:19:18;;;;;;;;;;;13.90;99.90;;;;;;5112575;28;25101;-78
2022/08/11 03:21:48;;;;;;;;;;;13.80;99.90;;;;;;5112683;28;25098;-78
2022/08/11 03:24:18;;;;;;;;;;;13.80;99.90;;;;;;5096005;28;25079;-78
2022/08/11 03:26:53;;;;;;;;;;;13.70;99.90;;;;;;5112878;28;25055;-77
2022/08/11 03:29:23;;;;;;;;;;;13.70;99.90;;;;;;5095370;28;25057;-78
2022/08/11 03:31:56;;;;;;;;;;;13.70;99.90;;;;;;5112268;28;25062;-78
2022/08/11 03:34:24;;;;;;;;;;;13.70;99.90;;;;;;5111132;27;25070;-78
2022/08/11 03:37:10;;;;;;;;;;;13.60;99.90;;;;;;5146196;27;25090;-78
2022/08/11 03:39:46;;;;;;;;;;;13.60;99.90;;;;;;5110141;28;25126;-78
2022/08/11 03:42:17;;;;;;;;;;;13.60;99.90;;;;;;5112642;27;25109;-78
2022/08/11 03:44:50;;;;;;;;;;;13.60;99.90;;;;;;5112491;28;25079;-78
2022/08/11 03:47:32;;;;;;;;;;;13.60;99.90;;;;;;5112324;28;25107;-78
2022/08/11 03:50:05;;;;;;;;;;;13.60;99.90;;;;;;5089961;27;25084;-78
2022/08/11 03:52:42;;;;;;;;;;;13.50;99.90;;;;;;5111315;27;25059;-78
2022/08/11 03:55:14;;;;;;;;;;;13.50;99.90;;;;;;5111666;28;25083;-78
2022/08/11 03:58:04;;;;;;;;;;;13.40;99.90;;;;;;5112264;28;25188;-78
2022/08/11 04:00:58;;;;;;;;;;;13.40;99.90;;;;;;5112049;28;25137;-78
2022/08/11 04:03:37;;;;;;;;;;;13.30;99.90;;;;;;5087891;27;25098;-78
2022/08/11 04:06:28;;;;;;;;;;;13.30;99.90;;;;;;5110709;28;25113;-78
2022/08/11 04:09:23;;;;;;;;;;;13.30;99.90;;;;;;5110487;28;25094;-78
2022/08/11 04:12:05;;;;;;;;;;;13.20;99.90;;;;;;5110593;28;25083;-78
2022/08/11 04:17:46;;;;;;;;;;;13.30;99.90;;;;;;5110687;28;25100;-77
2022/08/11 04:20:29;;;;;;;;;;;13.30;99.90;;;;;;5112901;27;25110;-78
2022/08/11 04:23:14;;;;;;;;;;;13.30;99.90;;;;;;5112860;27;25124;-78
2022/08/11 04:25:57;;;;;;;;;;;13.30;99.90;;;;;;5111388;28;25110;-77
2022/08/11 04:28:34;;;;;;;;;;;13.30;99.90;;;;;;5112049;28;25122;-78
2022/08/11 04:31:25;;;;;;;;;;;13.40;99.90;;;;;;5111274;28;25099;-78
2022/08/11 04:34:05;;;;;;;;;;;13.40;99.90;;;;;;5111721;28;25065;-78
2022/08/11 04:39:33;;;;;;;;;;;13.40;99.90;;;;;;5111188;28;25125;-78
2022/08/11 04:45:09;;;;;;;;;;;13.50;99.90;;;;;;5111534;28;25065;-78
2022/08/11 05:02:20;;;;;;;;;;;13.90;99.90;;;;;;4738452;28;165009;-78
2022/08/11 05:08:06;;;;;;;;;;;14.20;99.90;;;;;;4932975;27;37060;-78
2022/08/11 05:36:44;;;;;;;;;;;15.40;99.90;;;;;;5167463;27;25074;-78
2022/08/11 05:58:33;;;;;;;;;;;16.00;99.90;;;;;;5143407;27;28989;-78
2022/08/11 06:01:25;;;;;;;;;;;16.20;99.90;;;;;;5159277;27;36758;-78
2022/08/11 06:06:40;;;;;;;;;;;16.40;99.90;;;;;;5178988;27;25162;-78
2022/08/11 06:09:07;;;;;;;;;;;16.60;99.90;;;;;;5166963;27;25082;-78
2022/08/11 06:11:37;;;;;;;;;;;16.60;99.90;;;;;;5167610;27;25134;-79
2022/08/11 06:14:05;;;;;;;;;;;16.80;99.90;;;;;;5174133;27;25120;-79
2022/08/11 06:16:31;;;;;;;;;;;16.90;99.90;;;;;;5172033;27;25139;-78
2022/08/11 06:19:00;;;;;;;;;;;17.00;99.90;;;;;;5178417;27;25064;-79
2022/08/11 06:21:27;;;;;;;;;;;17.20;99.90;;;;;;5176185;27;25075;-79
2022/08/11 06:23:55;;;;;;;;;;;17.30;99.90;;;;;;5151262;27;25135;-78
2022/08/11 06:26:22;;;;;;;;;;;17.40;99.90;;;;;;5144595;27;25149;-79
2022/08/11 06:28:49;;;;;;;;;;;17.60;99.90;;;;;;4293511;27;363411;-79
2022/08/11 06:32:54;;;;;;;;;;;17.70;99.90;;;;;;5100350;27;85098;-76
2022/08/11 06:35:23;;;;;;;;;;;17.90;99.90;;;;;;5125591;27;25164;-76
2022/08/11 06:38:02;;;;;;;;;;;18.00;99.90;;;;;;5162072;27;25116;-76
2022/08/11 06:40:34;;;;;;;;;;;18.10;99.90;;;;;;5069421;27;84695;-76
2022/08/11 06:43:03;;;;;;;;;;;18.30;99.90;;;;;;5158594;27;25124;-77
2022/08/11 06:45:32;;;;;;;;;;;18.40;99.90;;;;;;4249465;27;208622;-77
2022/08/11 06:48:01;;;;;;;;;;;18.50;99.90;;;;;;5156607;27;25212;-77
2022/08/11 06:53:16;;;;;;;;;;;18.80;99.90;;;;;;4855431;27;198106;-76
2022/08/11 07:01:18;;;;;;;;;;;19.20;99.90;;;;;;5165770;27;25089;-76
2022/08/11 07:03:48;;;;;;;;;;;19.40;99.90;;;;;;5168878;27;25118;-76
2022/08/11 07:06:31;;;;;;;;;;;19.60;99.60;;;;;;5159920;27;25094;-76
2022/08/11 07:17:37;;;;;;;;;;;20.10;98.50;;;;;;5115642;27;25155;-77
2022/08/11 07:31:16;;;;;;;;;;;21.00;97.60;;;;;;5148976;27;25115;-85
2022/08/11 07:33:45;;;;;;;;;;;21.20;96.70;;;;;;5148128;27;25143;-82
2022/08/11 07:36:14;;;;;;;;;;;21.40;96.70;;;;;;5160276;27;25090;-85
2022/08/11 07:38:43;;;;;;;;;;;21.50;96.30;;;;;;5170692;27;25068;-86
2022/08/11 07:41:10;;;;;;;;;;;21.60;96.20;;;;;;5152501;27;25112;-81
2022/08/11 07:43:37;;;;;;;;;;;21.80;96.00;;;;;;5133825;27;25093;-86
2022/08/11 07:54:20;;;;;;;;;;;22.30;95.30;;;;;;5115782;27;25071;-81
2022/08/11 07:56:47;;;;;;;;;;;22.60;94.40;;;;;;5138327;27;25068;-84
2022/08/11 08:18:33;;;;;;;;;;;23.60;92.50;;;;;;5097730;28;25113;-88
2022/08/11 08:21:10;;;;;;;;;;;23.60;92.20;;;;;;5103539;27;25147;-83
2022/08/11 08:23:39;;;;;;;;;;;23.70;90.80;;;;;;5115491;27;25066;-83
2022/08/11 08:26:57;;;;;;;;;;;23.90;91.50;;;;;;5114070;27;25127;-84
2022/08/11 08:30:46;;;;;;;;;;;24.00;92.00;;;;;;5119306;27;25077;-83
2022/08/11 08:31:41;;;;;;;;;;;24.10;91.80;;;;;;5130161;27;25112;-83
2022/08/11 08:34:09;;;;;;;;;;;24.20;91.70;;;;;;5112313;27;25071;-83
2022/08/11 08:36:36;;;;;;;;;;;24.40;90.00;;;;;;5114562;27;25091;-84
2022/08/11 08:39:04;;;;;;;;;;;24.50;90.00;;;;;;5147975;27;25100;-83
2022/08/11 08:41:32;;;;;;;;;;;24.80;88.20;;;;;;5115500;27;25130;-78
2022/08/11 08:44:01;;;;;;;;;;;25.00;84.90;;;;;;5137961;27;25106;-87
2022/08/11 08:46:32;;;;;;;;;;;25.10;83.30;;;;;;5135243;27;25070;-90
2022/08/11 08:49:00;;;;;;;;;;;25.20;83.40;;;;;;5141702;27;25070;-91
2022/08/11 08:51:36;;;;;;;;;;;25.30;82.50;;;;;;5141509;27;25086;-90
2022/08/11 08:54:07;;;;;;;;;;;25.40;83.60;;;;;;5140939;27;25071;-90
2022/08/11 08:56:35;;;;;;;;;;;25.50;81.40;;;;;;5135431;27;25057;-89
2022/08/11 08:59:03;;;;;;;;;;;25.60;76.40;;;;;;5140902;27;25071;-89
2022/08/11 09:01:32;;;;;;;;;;;25.70;75.00;;;;;;5126975;27;25162;-71
2022/08/11 09:03:59;;;;;;;;;;;25.80;73.80;;;;;;5142225;27;25132;-70
2022/08/11 09:06:29;;;;;;;;;;;26.00;75.10;;;;;;5141803;27;25167;-71
2022/08/11 10:35:53;;;;;;;;;;;29.20;54.10;;;;;;5168631;27;25077;-74
2022/08/11 10:38:19;;;;;;;;;;;29.20;53.40;;;;;;5166857;27;25084;-75
2022/08/11 10:43:01;;;;;;;;;;;29.20;54.60;;;;;;5166764;27;25160;-74
2022/08/11 10:43:38;;;;;;;;;;;29.30;53.70;;;;;;5166821;27;25060;-74
2022/08/11 10:49:04;;;;;;;;;;;29.60;52.60;;;;;;5120855;27;58141;-74
2022/08/11 10:59:46;;;;;;;;;;;29.80;52.40;;;;;;5167182;27;25147;-74
2022/08/11 11:02:14;;;;;;;;;;;30.00;51.20;;;;;;5168993;27;25050;-74
2022/08/11 11:04:47;;;;;;;;;;;30.20;50.50;;;;;;5169472;27;25058;-74
2022/08/11 11:07:18;;;;;;;;;;;30.10;47.60;;;;;;5167920;27;25064;-74
2022/08/11 11:09:47;;;;;;;;;;;30.20;49.50;;;;;;5167107;27;25137;-74
2022/08/11 11:18:06;;;;;;;;;;;30.30;49.20;;;;;;5066970;28;25052;-74
2022/08/11 11:20:38;;;;;;;;;;;30.20;49.90;;;;;;5108571;27;25096;-74
2022/08/11 11:23:07;;;;;;;;;;;30.20;49.50;;;;;;5127318;27;25050;-74
2022/08/11 11:25:40;;;;;;;;;;;30.10;48.40;;;;;;5128002;27;25078;-74
2022/08/11 11:28:18;;;;;;;;;;;30.10;50.00;;;;;;5126722;27;25059;-74
2022/08/11 11:30:51;;;;;;;;;;;30.30;49.10;;;;;;5126931;27;25121;-74
2022/08/11 11:33:20;;;;;;;;;;;30.50;48.40;;;;;;4378037;27;105611;-74
2022/08/11 11:35:55;;;;;;;;;;;30.60;48.00;;;;;;4890539;27;58754;-74
2022/08/11 11:38:22;;;;;;;;;;;30.70;48.00;;;;;;5122527;27;25115;-74
2022/08/11 11:41:23;;;;;;;;;;;30.90;47.70;;;;;;5124558;27;20248;-74
2022/08/11 11:43:36;;;;;;;;;;;31.00;48.00;;;;;;5118226;27;25069;-74
2022/08/11 11:46:05;;;;;;;;;;;31.10;45.90;;;;;;5112335;28;25097;-74
2022/08/11 11:48:32;;;;;;;;;;;31.10;47.30;;;;;;5102035;28;20292;-74
2022/08/11 11:51:00;;;;;;;;;;;31.00;47.70;;;;;;5112765;28;25107;-74
2022/08/11 11:53:27;;;;;;;;;;;30.70;47.40;;;;;;5095311;28;25042;-74
2022/08/11 11:55:54;;;;;;;;;;;30.50;48.60;;;;;;5111889;28;19968;-74
2022/08/11 12:01:18;;;;;;;;;;;30.50;47.90;;;;;;5091347;27;19988;-74
2022/08/11 12:03:46;;;;;;;;;;;30.40;46.60;;;;;;5113559;28;25103;-74
2022/08/11 12:06:16;;;;;;;;;;;30.30;48.40;;;;;;5111931;28;25123;-74
2022/08/11 12:08:44;;;;;;;;;;;30.40;47.70;;;;;;5113868;28;25084;-74
2022/08/11 12:13:57;;;;;;;;;;;30.90;47.90;;;;;;5111748;28;25078;-74
2022/08/11 12:16:24;;;;;;;;;;;30.90;47.50;;;;;;5111735;28;25073;-74
2022/08/11 12:18:52;;;;;;;;;;;31.00;47.20;;;;;;5113262;28;25140;-75
2022/08/11 12:21:21;;;;;;;;;;;31.00;47.20;;;;;;5113644;28;25070;-75
2022/08/11 12:29:23;;;;;;;;;;;31.00;44.60;;;;;;5110524;27;25066;-74
2022/08/11 12:31:50;;;;;;;;;;;31.20;47.10;;;;;;5111163;28;25068;-75
2022/08/11 12:34:17;;;;;;;;;;;31.30;47.90;;;;;;5111339;28;25069;-74
2022/08/11 12:36:48;;;;;;;;;;;31.30;45.60;;;;;;5112310;28;25116;-74
2022/08/11 12:39:19;;;;;;;;;;;31.50;46.60;;;;;;5112051;28;25090;-75
2022/08/11 12:47:17;;;;;;;;;;;31.70;45.50;;;;;;5110070;28;25106;-74
2022/08/11 12:52:33;;;;;;;;;;;31.80;46.00;;;;;;5119016;27;25141;-74
2022/08/11 12:55:02;;;;;;;;;;;32.00;44.90;;;;;;5110994;27;25120;-75
2022/08/11 13:05:49;;;;;;;;;;;31.80;45.90;;;;;;5114359;27;25104;-75
2022/08/11 13:08:17;;;;;;;;;;;31.80;45.80;;;;;;5110564;28;25076;-75
2022/08/11 13:13:30;;;;;;;;;;;31.90;46.10;;;;;;5120254;27;25139;-74
2022/08/11 13:15:57;;;;;;;;;;;31.90;44.40;;;;;;5108320;28;25067;-75
2022/08/11 13:18:26;;;;;;;;;;;31.90;44.10;;;;;;5110494;28;25087;-75
2022/08/11 13:20:54;;;;;;;;;;;32.00;43.60;;;;;;5110822;28;25059;-75
2022/08/11 13:23:24;;;;;;;;;;;32.00;44.60;;;;;;5109641;28;25106;-75
2022/08/11 13:25:52;;;;;;;;;;;32.00;44.20;;;;;;5104598;28;25103;-75
2022/08/11 13:28:20;;;;;;;;;;;32.20;45.30;;;;;;5111834;28;25104;-75
2022/08/11 13:33:32;;;;;;;;;;;32.50;45.20;;;;;;5111919;28;25058;-72
2022/08/11 13:35:59;;;;;;;;;;;32.50;44.60;;;;;;5110159;28;25115;-72
2022/08/11 13:38:28;;;;;;;;;;;32.60;44.20;;;;;;5111926;28;25081;-72
2022/08/11 13:40:55;;;;;;;;;;;32.30;43.00;;;;;;5110532;28;25140;-72
2022/08/11 13:43:23;;;;;;;;;;;32.50;42.10;;;;;;5111902;28;25066;-72
2022/08/11 13:45:51;;;;;;;;;;;32.60;43.80;;;;;;5108539;28;25075;-72
2022/08/11 13:48:22;;;;;;;;;;;32.60;44.10;;;;;;5110162;27;25066;-72
2022/08/11 13:53:39;;;;;;;;;;;32.90;43.80;;;;;;5110546;27;25152;-72
2022/08/11 13:56:06;;;;;;;;;;;32.80;42.80;;;;;;5105193;28;25041;-72
2022/08/11 13:58:33;;;;;;;;;;;32.90;43.00;;;;;;5109473;28;25091;-72
2022/08/11 14:01:00;;;;;;;;;;;32.90;42.50;;;;;;5109697;27;25069;-72
2022/08/11 14:03:27;;;;;;;;;;;33.30;43.50;;;;;;5109076;28;25064;-72
2022/08/11 14:05:56;;;;;;;;;;;33.70;43.20;;;;;;5106724;27;25133;-73
2022/08/11 14:08:25;;;;;;;;;;;33.30;42.70;;;;;;5111524;28;25167;-73
2022/08/11 14:13:39;;;;;;;;;;;33.60;42.80;;;;;;5103770;28;25076;-72
2022/08/11 14:16:08;;;;;;;;;;;34.10;42.90;;;;;;5107913;28;25064;-73
2022/08/11 14:18:35;;;;;;;;;;;33.90;41.80;;;;;;5109271;28;25193;-73
2022/08/11 14:23:53;;;;;;;;;;;34.00;42.50;;;;;;5107872;28;25099;-73
2022/08/11 14:26:26;;;;;;;;;;;34.30;42.30;;;;;;5106984;28;25055;-73
2022/08/11 14:28:55;;;;;;;;;;;34.20;43.00;;;;;;5091820;28;25080;-73
2022/08/11 14:31:24;;;;;;;;;;;33.90;41.50;;;;;;5110562;28;25123;-72
2022/08/11 14:33:52;;;;;;;;;;;34.20;42.50;;;;;;5109401;27;25063;-73
2022/08/11 14:36:20;;;;;;;;;;;34.80;42.90;;;;;;5107502;28;25063;-72
2022/08/11 14:38:47;;;;;;;;;;;35.20;42.70;;;;;;5118095;27;25061;-73
2022/08/11 14:49:29;;;;;;;;;;;34.80;43.40;;;;;;5119153;27;25070;-73
2022/08/11 14:51:57;;;;;;;;;;;35.00;41.30;;;;;;5109524;28;25074;-73
2022/08/11 14:57:10;;;;;;;;;;;35.30;41.40;;;;;;5108717;28;25076;-73
2022/08/11 14:59:38;;;;;;;;;;;35.20;41.40;;;;;;5107845;28;25074;-74
2022/08/11 15:04:49;;;;;;;;;;;36.60;40.40;;;;;;5107455;28;25099;-74
2022/08/11 15:07:16;;;;;;;;;;;36.30;40.70;;;;;;5108015;28;25129;-73
2022/08/11 15:09:44;;;;;;;;;;;37.10;40.70;;;;;;5107639;28;25072;-73
2022/08/11 15:12:17;;;;;;;;;;;37.60;40.00;;;;;;5107849;28;25090;-73
2022/08/11 15:17:32;;;;;;;;;;;37.90;39.50;;;;;;5119130;27;25055;-73
2022/08/11 15:25:29;;;;;;;;;;;37.10;39.90;;;;;;5112193;27;25084;-73
2022/08/11 15:38:59;;;;;;;;;;;37.00;39.60;;;;;;5111912;27;25102;-73
